Aérodrome :
LOGIN :

S'inscrire | Disclaimer

   EN    FR    IT 

 










Légende :    VFR   VFR Marginal   IFR   IFR Intensif   IFR Très Intensif
Visi : 
Plafond : 
>= 8 km
>= 3000ft
5 à 8 km
1000 à 3000 ft
1500m à 5 km
500 à 1000 ft
800 à 1500m
200 à 500 ft
< 800m
< 200 ft
Symboles :   Orages  Brouillard  Fortes neiges  Fortes précipitations  Vent > 20 kt
SIGMETs :   Divers  Orages  Givrage  Turbulence  Onde Orograph.  Cendres Volcan.







- Altitude de l'aérodrome : 235 ft
- Code IATA : BZG


EPBY - Bydgoszcz

DERNIER METAR :
  • 200100Z 21005KT 2600 BR OVC002 00/M00 Q1008

METARs EXPIRÉS :
  • 200030Z 22005KT 3400 BR OVC002 M00/M01 Q1008
  • 200000Z 23005KT 2600 -SN BR OVC002 M00/M01 Q1008
  • 192330Z 24005KT 4100 -SN BR OVC002 00/M00 Q1008
  • 192300Z 24004KT 4300 BR OVC003 M00/M01 Q1008 R26/2///95
  • 192230Z 25006KT 3800 BR OVC002 M00/M01 Q1008 R26/2///95

TAF AMD TAF EPBY
Valide du 20 à 01h jusqu'au 21 à 00h UTC


200102Z 2001/2024 VRB04KT 6000 BKN010
TEMPO 2001/2006 2500 -SN BKN002 BKN007
BECMG 2005/2007 -SN BKN008
TEMPO 2006/2015 1500 SHSN BR BKN002 BKN007CB
TEMPO 2015/2024 1500 SN BR BKN004
Pas de NOTAMs connus pour ce terrain.



MET'MAP, la Météo Aéronautique d'un coup d'oeil ! - Copyright ORBIFLY Décembre 2007 - Disclaimer

ORBIFLY MET'MAP TEAM :

Programmation & Développement : Alexandra Zaïnal
Conception & Développement : Baudouin d'Aumeries
Co-Programmation & Développement : Marc-Olivier Méhu
Soutien technique & logistique : Manuel Goepfert

Contact : metmap@orbifly.com




SOURCES & CREDITS :

   NOAA